sensor_id;sensor_type;location;lat;lon;timestamp;P1;durP1;ratioP1;P2;durP2;ratioP2
3487;SDS011;38546;48.170;11.724;2023-12-29T00:02:28;2.07;;;1.97;;
3487;SDS011;38546;48.170;11.724;2023-12-29T00:05:17;2.17;;;1.97;;
3487;SDS011;38546;48.170;11.724;2023-12-29T00:08:06;1.90;;;1.80;;
3487;SDS011;38546;48.170;11.724;2023-12-29T00:10:55;1.83;;;1.70;;
3487;SDS011;38546;48.170;11.724;2023-12-29T00:13:44;1.73;;;1.63;;
3487;SDS011;38546;48.170;11.724;2023-12-29T00:16:34;2.47;;;2.23;;
3487;SDS011;38546;48.170;11.724;2023-12-29T00:19:23;1.60;;;1.50;;
3487;SDS011;38546;48.170;11.724;2023-12-29T00:22:12;2.00;;;1.90;;
3487;SDS011;38546;48.170;11.724;2023-12-29T00:25:01;2.27;;;2.07;;
3487;SDS011;38546;48.170;11.724;2023-12-29T00:27:51;2.00;;;1.43;;
3487;SDS011;38546;48.170;11.724;2023-12-29T00:30:40;2.30;;;1.87;;
3487;SDS011;38546;48.170;11.724;2023-12-29T00:33:30;2.10;;;1.90;;
3487;SDS011;38546;48.170;11.724;2023-12-29T00:36:20;2.00;;;1.90;;
3487;SDS011;38546;48.170;11.724;2023-12-29T00:39:10;1.60;;;1.60;;
3487;SDS011;38546;48.170;11.724;2023-12-29T00:42:01;2.23;;;2.03;;
3487;SDS011;38546;48.170;11.724;2023-12-29T00:44:50;2.83;;;2.20;;
3487;SDS011;38546;48.170;11.724;2023-12-29T00:47:39;1.97;;;1.87;;
3487;SDS011;38546;48.170;11.724;2023-12-29T00:50:29;2.23;;;2.03;;
3487;SDS011;38546;48.170;11.724;2023-12-29T00:53:18;2.70;;;2.20;;
3487;SDS011;38546;48.170;11.724;2023-12-29T00:56:11;4.00;;;2.07;;
3487;SDS011;38546;48.170;11.724;2023-12-29T00:59:00;1.77;;;1.67;;
3487;SDS011;38546;48.170;11.724;2023-12-29T01:01:50;4.40;;;2.47;;
3487;SDS011;38546;48.170;11.724;2023-12-29T01:04:39;2.20;;;2.10;;
3487;SDS011;38546;48.170;11.724;2023-12-29T01:07:29;3.00;;;2.17;;
3487;SDS011;38546;48.170;11.724;2023-12-29T01:10:18;2.33;;;2.20;;
3487;SDS011;38546;48.170;11.724;2023-12-29T01:13:07;2.27;;;2.07;;
3487;SDS011;38546;48.170;11.724;2023-12-29T01:15:56;2.13;;;2.03;;
3487;SDS011;38546;48.170;11.724;2023-12-29T01:18:45;1.90;;;1.77;;
3487;SDS011;38546;48.170;11.724;2023-12-29T01:21:37;2.10;;;2.00;;
3487;SDS011;38546;48.170;11.724;2023-12-29T01:24:27;2.20;;;2.10;;
3487;SDS011;38546;48.170;11.724;2023-12-29T01:27:16;3.00;;;2.80;;
3487;SDS011;38546;48.170;11.724;2023-12-29T01:30:05;2.37;;;2.17;;
3487;SDS011;38546;48.170;11.724;2023-12-29T01:32:56;3.73;;;2.20;;
3487;SDS011;38546;48.170;11.724;2023-12-29T01:35:45;2.13;;;1.97;;
3487;SDS011;38546;48.170;11.724;2023-12-29T01:38:34;2.30;;;2.20;;
3487;SDS011;38546;48.170;11.724;2023-12-29T01:41:24;2.30;;;2.13;;
3487;SDS011;38546;48.170;11.724;2023-12-29T01:44:20;2.00;;;1.90;;
3487;SDS011;38546;48.170;11.724;2023-12-29T01:47:13;2.10;;;2.00;;
3487;SDS011;38546;48.170;11.724;2023-12-29T01:50:04;3.20;;;2.90;;
3487;SDS011;38546;48.170;11.724;2023-12-29T01:52:55;2.37;;;2.27;;
3487;SDS011;38546;48.170;11.724;2023-12-29T01:55:45;2.27;;;2.03;;
3487;SDS011;38546;48.170;11.724;2023-12-29T01:58:35;2.07;;;1.97;;
3487;SDS011;38546;48.170;11.724;2023-12-29T02:01:25;2.30;;;2.00;;
3487;SDS011;38546;48.170;11.724;2023-12-29T02:04:16;3.03;;;2.43;;
3487;SDS011;38546;48.170;11.724;2023-12-29T02:07:06;2.10;;;2.00;;
3487;SDS011;38546;48.170;11.724;2023-12-29T02:09:56;3.27;;;2.63;;
3487;SDS011;38546;48.170;11.724;2023-12-29T02:12:49;2.67;;;2.57;;
3487;SDS011;38546;48.170;11.724;2023-12-29T02:15:39;2.00;;;1.90;;
3487;SDS011;38546;48.170;11.724;2023-12-29T02:18:29;2.57;;;2.03;;
3487;SDS011;38546;48.170;11.724;2023-12-29T02:21:25;3.23;;;1.93;;
3487;SDS011;38546;48.170;11.724;2023-12-29T02:24:14;2.37;;;2.20;;
3487;SDS011;38546;48.170;11.724;2023-12-29T02:30:37;2.40;;;2.20;;
3487;SDS011;38546;48.170;11.724;2023-12-29T02:33:34;2.17;;;1.97;;
3487;SDS011;38546;48.170;11.724;2023-12-29T02:36:27;2.33;;;2.10;;
3487;SDS011;38546;48.170;11.724;2023-12-29T02:39:17;2.50;;;2.30;;
3487;SDS011;38546;48.170;11.724;2023-12-29T02:42:07;3.23;;;2.23;;
3487;SDS011;38546;48.170;11.724;2023-12-29T02:44:57;2.40;;;2.30;;
3487;SDS011;38546;48.170;11.724;2023-12-29T02:47:46;3.00;;;2.10;;
3487;SDS011;38546;48.170;11.724;2023-12-29T02:50:37;2.40;;;2.20;;
3487;SDS011;38546;48.170;11.724;2023-12-29T02:53:26;2.30;;;2.20;;
3487;SDS011;38546;48.170;11.724;2023-12-29T02:56:15;2.30;;;2.20;;
3487;SDS011;38546;48.170;11.724;2023-12-29T02:59:04;2.50;;;2.30;;
3487;SDS011;38546;48.170;11.724;2023-12-29T03:01:54;2.37;;;2.17;;
3487;SDS011;38546;48.170;11.724;2023-12-29T03:04:43;2.17;;;2.03;;
3487;SDS011;38546;48.170;11.724;2023-12-29T03:07:32;2.30;;;2.20;;
3487;SDS011;38546;48.170;11.724;2023-12-29T03:10:21;2.47;;;2.27;;
3487;SDS011;38546;48.170;11.724;2023-12-29T03:13:11;3.33;;;2.37;;
3487;SDS011;38546;48.170;11.724;2023-12-29T03:16:01;2.23;;;2.13;;
3487;SDS011;38546;48.170;11.724;2023-12-29T03:18:50;2.60;;;2.40;;
3487;SDS011;38546;48.170;11.724;2023-12-29T03:21:39;2.80;;;2.70;;
3487;SDS011;38546;48.170;11.724;2023-12-29T03:24:29;2.23;;;2.03;;
3487;SDS011;38546;48.170;11.724;2023-12-29T03:27:19;2.50;;;2.40;;
3487;SDS011;38546;48.170;11.724;2023-12-29T03:30:08;2.87;;;2.43;;
3487;SDS011;38546;48.170;11.724;2023-12-29T03:32:59;2.50;;;2.30;;
3487;SDS011;38546;48.170;11.724;2023-12-29T03:35:48;2.33;;;2.23;;
3487;SDS011;38546;48.170;11.724;2023-12-29T03:38:37;2.63;;;2.43;;
3487;SDS011;38546;48.170;11.724;2023-12-29T03:41:26;2.63;;;2.20;;
3487;SDS011;38546;48.170;11.724;2023-12-29T03:44:16;3.23;;;2.97;;
3487;SDS011;38546;48.170;11.724;2023-12-29T03:47:05;4.10;;;2.57;;
3487;SDS011;38546;48.170;11.724;2023-12-29T03:49:54;3.57;;;3.27;;
3487;SDS011;38546;48.170;11.724;2023-12-29T03:52:46;2.50;;;2.40;;
3487;SDS011;38546;48.170;11.724;2023-12-29T03:55:36;2.60;;;2.40;;
3487;SDS011;38546;48.170;11.724;2023-12-29T03:58:26;2.93;;;2.60;;
3487;SDS011;38546;48.170;11.724;2023-12-29T04:01:16;4.60;;;2.27;;
3487;SDS011;38546;48.170;11.724;2023-12-29T04:04:06;3.00;;;2.50;;
3487;SDS011;38546;48.170;11.724;2023-12-29T04:06:55;2.20;;;2.10;;
3487;SDS011;38546;48.170;11.724;2023-12-29T04:09:45;2.70;;;2.50;;
3487;SDS011;38546;48.170;11.724;2023-12-29T04:12:34;3.13;;;2.83;;
3487;SDS011;38546;48.170;11.724;2023-12-29T04:15:24;2.47;;;2.27;;
3487;SDS011;38546;48.170;11.724;2023-12-29T04:18:13;2.57;;;2.23;;
3487;SDS011;38546;48.170;11.724;2023-12-29T04:21:02;2.67;;;2.47;;
3487;SDS011;38546;48.170;11.724;2023-12-29T04:23:53;2.50;;;2.33;;
3487;SDS011;38546;48.170;11.724;2023-12-29T04:26:42;3.23;;;2.40;;
3487;SDS011;38546;48.170;11.724;2023-12-29T04:29:31;2.40;;;2.30;;
3487;SDS011;38546;48.170;11.724;2023-12-29T04:32:20;2.10;;;2.00;;
3487;SDS011;38546;48.170;11.724;2023-12-29T04:35:09;2.40;;;2.30;;
3487;SDS011;38546;48.170;11.724;2023-12-29T04:38:01;3.37;;;2.73;;
3487;SDS011;38546;48.170;11.724;2023-12-29T04:40:50;3.60;;;2.47;;
3487;SDS011;38546;48.170;11.724;2023-12-29T04:43:39;2.30;;;2.20;;
3487;SDS011;38546;48.170;11.724;2023-12-29T04:46:28;2.30;;;2.10;;
3487;SDS011;38546;48.170;11.724;2023-12-29T04:49:18;3.87;;;2.60;;
3487;SDS011;38546;48.170;11.724;2023-12-29T04:52:07;2.93;;;2.73;;
3487;SDS011;38546;48.170;11.724;2023-12-29T04:54:56;3.03;;;2.80;;
3487;SDS011;38546;48.170;11.724;2023-12-29T04:57:45;3.33;;;3.10;;
3487;SDS011;38546;48.170;11.724;2023-12-29T05:00:35;2.73;;;2.50;;
3487;SDS011;38546;48.170;11.724;2023-12-29T05:03:24;3.50;;;2.60;;
3487;SDS011;38546;48.170;11.724;2023-12-29T05:06:14;2.83;;;2.23;;
3487;SDS011;38546;48.170;11.724;2023-12-29T05:09:03;2.90;;;2.70;;
3487;SDS011;38546;48.170;11.724;2023-12-29T05:11:52;3.13;;;2.10;;
3487;SDS011;38546;48.170;11.724;2023-12-29T05:14:41;2.07;;;1.97;;
3487;SDS011;38546;48.170;11.724;2023-12-29T05:17:30;4.63;;;2.43;;
3487;SDS011;38546;48.170;11.724;2023-12-29T05:20:20;2.30;;;2.20;;
3487;SDS011;38546;48.170;11.724;2023-12-29T05:23:09;2.40;;;2.30;;
3487;SDS011;38546;48.170;11.724;2023-12-29T05:25:59;4.47;;;2.60;;
3487;SDS011;38546;48.170;11.724;2023-12-29T05:28:48;2.43;;;2.23;;
3487;SDS011;38546;48.170;11.724;2023-12-29T05:31:37;4.90;;;2.47;;
3487;SDS011;38546;48.170;11.724;2023-12-29T05:34:26;4.30;;;2.50;;
3487;SDS011;38546;48.170;11.724;2023-12-29T05:37:15;3.00;;;2.80;;
3487;SDS011;38546;48.170;11.724;2023-12-29T05:40:04;2.73;;;2.07;;
3487;SDS011;38546;48.170;11.724;2023-12-29T05:42:55;5.93;;;2.93;;
3487;SDS011;38546;48.170;11.724;2023-12-29T05:45:44;3.17;;;2.87;;
3487;SDS011;38546;48.170;11.724;2023-12-29T05:48:33;3.60;;;3.10;;
3487;SDS011;38546;48.170;11.724;2023-12-29T05:51:22;3.33;;;3.07;;
3487;SDS011;38546;48.170;11.724;2023-12-29T05:54:10;3.30;;;3.00;;
3487;SDS011;38546;48.170;11.724;2023-12-29T05:56:59;3.33;;;2.17;;
3487;SDS011;38546;48.170;11.724;2023-12-29T05:59:49;4.63;;;3.30;;
3487;SDS011;38546;48.170;11.724;2023-12-29T06:02:38;2.60;;;2.40;;
3487;SDS011;38546;48.170;11.724;2023-12-29T06:05:27;3.03;;;2.70;;
3487;SDS011;38546;48.170;11.724;2023-12-29T06:08:16;2.57;;;2.37;;
3487;SDS011;38546;48.170;11.724;2023-12-29T06:11:05;4.33;;;2.90;;
3487;SDS011;38546;48.170;11.724;2023-12-29T06:13:55;2.93;;;2.73;;
3487;SDS011;38546;48.170;11.724;2023-12-29T06:16:43;3.70;;;2.50;;
3487;SDS011;38546;48.170;11.724;2023-12-29T06:19:33;2.97;;;2.77;;
3487;SDS011;38546;48.170;11.724;2023-12-29T06:22:22;6.20;;;2.50;;
3487;SDS011;38546;48.170;11.724;2023-12-29T06:25:11;3.47;;;2.53;;
3487;SDS011;38546;48.170;11.724;2023-12-29T06:28:00;3.10;;;2.90;;
3487;SDS011;38546;48.170;11.724;2023-12-29T06:30:49;4.70;;;2.63;;
3487;SDS011;38546;48.170;11.724;2023-12-29T06:33:41;2.93;;;2.30;;
3487;SDS011;38546;48.170;11.724;2023-12-29T06:36:31;2.37;;;2.27;;
3487;SDS011;38546;48.170;11.724;2023-12-29T06:39:21;2.63;;;2.17;;
3487;SDS011;38546;48.170;11.724;2023-12-29T06:42:11;2.00;;;1.90;;
3487;SDS011;38546;48.170;11.724;2023-12-29T06:45:00;1.60;;;1.50;;
3487;SDS011;38546;48.170;11.724;2023-12-29T06:47:50;2.17;;;2.07;;
3487;SDS011;38546;48.170;11.724;2023-12-29T06:50:39;2.53;;;2.33;;
3487;SDS011;38546;48.170;11.724;2023-12-29T06:53:28;2.10;;;2.00;;
3487;SDS011;38546;48.170;11.724;2023-12-29T06:56:17;1.93;;;1.80;;
3487;SDS011;38546;48.170;11.724;2023-12-29T06:59:06;3.03;;;1.90;;
3487;SDS011;38546;48.170;11.724;2023-12-29T07:01:55;1.60;;;1.50;;
3487;SDS011;38546;48.170;11.724;2023-12-29T07:04:44;2.17;;;1.97;;
3487;SDS011;38546;48.170;11.724;2023-12-29T07:07:37;2.13;;;1.93;;
3487;SDS011;38546;48.170;11.724;2023-12-29T07:10:26;2.10;;;2.00;;
3487;SDS011;38546;48.170;11.724;2023-12-29T07:13:15;2.23;;;2.03;;
3487;SDS011;38546;48.170;11.724;2023-12-29T07:16:04;2.90;;;2.30;;
3487;SDS011;38546;48.170;11.724;2023-12-29T07:18:54;2.30;;;2.20;;
3487;SDS011;38546;48.170;11.724;2023-12-29T07:21:43;2.40;;;2.20;;
3487;SDS011;38546;48.170;11.724;2023-12-29T07:24:33;3.33;;;2.00;;
3487;SDS011;38546;48.170;11.724;2023-12-29T07:27:23;2.23;;;2.13;;
3487;SDS011;38546;48.170;11.724;2023-12-29T07:30:13;1.90;;;1.80;;
3487;SDS011;38546;48.170;11.724;2023-12-29T07:33:03;3.07;;;2.60;;
3487;SDS011;38546;48.170;11.724;2023-12-29T07:35:52;2.57;;;2.37;;
3487;SDS011;38546;48.170;11.724;2023-12-29T07:38:41;3.37;;;2.47;;
3487;SDS011;38546;48.170;11.724;2023-12-29T07:41:31;2.20;;;1.90;;
3487;SDS011;38546;48.170;11.724;2023-12-29T07:44:20;4.67;;;2.53;;
3487;SDS011;38546;48.170;11.724;2023-12-29T07:47:09;2.37;;;2.17;;
3487;SDS011;38546;48.170;11.724;2023-12-29T07:50:00;4.23;;;2.20;;
3487;SDS011;38546;48.170;11.724;2023-12-29T07:52:50;4.37;;;1.93;;
3487;SDS011;38546;48.170;11.724;2023-12-29T07:55:39;2.40;;;1.90;;
3487;SDS011;38546;48.170;11.724;2023-12-29T07:58:28;2.87;;;2.57;;
3487;SDS011;38546;48.170;11.724;2023-12-29T08:01:18;2.10;;;2.00;;
3487;SDS011;38546;48.170;11.724;2023-12-29T08:04:07;4.03;;;2.23;;
3487;SDS011;38546;48.170;11.724;2023-12-29T08:06:56;2.03;;;1.93;;
3487;SDS011;38546;48.170;11.724;2023-12-29T08:09:45;2.60;;;2.40;;
3487;SDS011;38546;48.170;11.724;2023-12-29T08:12:35;3.50;;;2.80;;
3487;SDS011;38546;48.170;11.724;2023-12-29T08:15:27;3.23;;;2.93;;
3487;SDS011;38546;48.170;11.724;2023-12-29T08:18:16;2.70;;;2.50;;
3487;SDS011;38546;48.170;11.724;2023-12-29T08:21:06;2.50;;;2.30;;
3487;SDS011;38546;48.170;11.724;2023-12-29T08:23:55;2.83;;;2.60;;
3487;SDS011;38546;48.170;11.724;2023-12-29T08:26:45;2.20;;;2.10;;
3487;SDS011;38546;48.170;11.724;2023-12-29T08:29:35;2.43;;;2.33;;
3487;SDS011;38546;48.170;11.724;2023-12-29T08:32:25;2.33;;;2.20;;
3487;SDS011;38546;48.170;11.724;2023-12-29T08:35:14;3.20;;;2.60;;
3487;SDS011;38546;48.170;11.724;2023-12-29T08:38:03;2.77;;;2.57;;
3487;SDS011;38546;48.170;11.724;2023-12-29T08:40:53;2.27;;;2.13;;
3487;SDS011;38546;48.170;11.724;2023-12-29T08:43:42;4.30;;;2.73;;
3487;SDS011;38546;48.170;11.724;2023-12-29T08:46:31;3.17;;;2.80;;
3487;SDS011;38546;48.170;11.724;2023-12-29T08:49:20;4.27;;;2.77;;
3487;SDS011;38546;48.170;11.724;2023-12-29T08:52:10;3.93;;;3.03;;
3487;SDS011;38546;48.170;11.724;2023-12-29T08:54:59;2.93;;;2.73;;
3487;SDS011;38546;48.170;11.724;2023-12-29T08:57:48;2.47;;;2.30;;
3487;SDS011;38546;48.170;11.724;2023-12-29T09:00:37;2.57;;;2.37;;
3487;SDS011;38546;48.170;11.724;2023-12-29T09:03:27;2.43;;;2.23;;
3487;SDS011;38546;48.170;11.724;2023-12-29T09:06:16;2.37;;;2.20;;
3487;SDS011;38546;48.170;11.724;2023-12-29T09:09:05;2.60;;;2.20;;
3487;SDS011;38546;48.170;11.724;2023-12-29T09:11:54;3.10;;;2.50;;
3487;SDS011;38546;48.170;11.724;2023-12-29T09:14:44;2.13;;;2.03;;
3487;SDS011;38546;48.170;11.724;2023-12-29T09:17:33;2.27;;;2.10;;
3487;SDS011;38546;48.170;11.724;2023-12-29T09:20:23;2.30;;;2.10;;
3487;SDS011;38546;48.170;11.724;2023-12-29T09:23:13;2.47;;;2.27;;
3487;SDS011;38546;48.170;11.724;2023-12-29T09:26:02;2.03;;;1.93;;
3487;SDS011;38546;48.170;11.724;2023-12-29T09:28:52;2.33;;;2.23;;
3487;SDS011;38546;48.170;11.724;2023-12-29T09:31:41;2.43;;;2.23;;
3487;SDS011;38546;48.170;11.724;2023-12-29T09:34:31;3.13;;;2.93;;
3487;SDS011;38546;48.170;11.724;2023-12-29T09:37:20;5.73;;;2.60;;
3487;SDS011;38546;48.170;11.724;2023-12-29T09:40:11;1.77;;;1.67;;
3487;SDS011;38546;48.170;11.724;2023-12-29T09:43:00;2.30;;;2.20;;
3487;SDS011;38546;48.170;11.724;2023-12-29T09:45:53;3.43;;;2.20;;
3487;SDS011;38546;48.170;11.724;2023-12-29T09:48:47;2.37;;;1.57;;
3487;SDS011;38546;48.170;11.724;2023-12-29T09:51:40;2.03;;;1.93;;
3487;SDS011;38546;48.170;11.724;2023-12-29T09:54:30;1.47;;;1.47;;
3487;SDS011;38546;48.170;11.724;2023-12-29T09:57:20;2.70;;;2.50;;
3487;SDS011;38546;48.170;11.724;2023-12-29T10:00:11;2.37;;;2.17;;
3487;SDS011;38546;48.170;11.724;2023-12-29T10:03:03;1.67;;;1.67;;
3487;SDS011;38546;48.170;11.724;2023-12-29T10:05:54;6.50;;;2.60;;
3487;SDS011;38546;48.170;11.724;2023-12-29T10:08:49;2.10;;;2.00;;
3487;SDS011;38546;48.170;11.724;2023-12-29T10:11:39;2.20;;;2.10;;
3487;SDS011;38546;48.170;11.724;2023-12-29T10:14:32;3.90;;;2.30;;
3487;SDS011;38546;48.170;11.724;2023-12-29T10:17:33;1.87;;;1.77;;
3487;SDS011;38546;48.170;11.724;2023-12-29T10:25:25;2.60;;;1.80;;
3487;SDS011;38546;48.170;11.724;2023-12-29T10:28:16;3.53;;;2.63;;
3487;SDS011;38546;48.170;11.724;2023-12-29T10:31:09;2.53;;;2.40;;
3487;SDS011;38546;48.170;11.724;2023-12-29T10:34:20;2.30;;;2.10;;
3487;SDS011;38546;48.170;11.724;2023-12-29T10:37:22;1.83;;;1.73;;
3487;SDS011;38546;48.170;11.724;2023-12-29T10:40:18;1.93;;;1.83;;
3487;SDS011;38546;48.170;11.724;2023-12-29T10:43:08;2.70;;;2.07;;
3487;SDS011;38546;48.170;11.724;2023-12-29T10:46:05;2.40;;;2.30;;
3487;SDS011;38546;48.170;11.724;2023-12-29T10:49:12;2.50;;;2.33;;
3487;SDS011;38546;48.170;11.724;2023-12-29T10:52:14;5.33;;;2.20;;
3487;SDS011;38546;48.170;11.724;2023-12-29T10:55:06;1.70;;;1.57;;
3487;SDS011;38546;48.170;11.724;2023-12-29T10:57:59;8.53;;;1.97;;
3487;SDS011;38546;48.170;11.724;2023-12-29T11:00:49;1.60;;;1.50;;
3487;SDS011;38546;48.170;11.724;2023-12-29T11:03:39;1.87;;;1.73;;
3487;SDS011;38546;48.170;11.724;2023-12-29T11:06:29;1.37;;;1.27;;
3487;SDS011;38546;48.170;11.724;2023-12-29T11:09:32;0.90;;;0.90;;
3487;SDS011;38546;48.170;11.724;2023-12-29T11:12:24;1.20;;;1.20;;
3487;SDS011;38546;48.170;11.724;2023-12-29T11:15:15;1.23;;;1.13;;
3487;SDS011;38546;48.170;11.724;2023-12-29T11:18:05;1.70;;;1.60;;
3487;SDS011;38546;48.170;11.724;2023-12-29T11:20:55;1.37;;;1.27;;
3487;SDS011;38546;48.170;11.724;2023-12-29T11:23:46;1.13;;;1.00;;
3487;SDS011;38546;48.170;11.724;2023-12-29T11:26:36;1.40;;;1.40;;
3487;SDS011;38546;48.170;11.724;2023-12-29T11:29:26;1.30;;;1.20;;
3487;SDS011;38546;48.170;11.724;2023-12-29T11:32:20;1.50;;;1.50;;
3487;SDS011;38546;48.170;11.724;2023-12-29T11:35:33;1.83;;;1.73;;
3487;SDS011;38546;48.170;11.724;2023-12-29T11:38:45;4.07;;;1.30;;
3487;SDS011;38546;48.170;11.724;2023-12-29T11:46:38;1.80;;;1.70;;
3487;SDS011;38546;48.170;11.724;2023-12-29T11:52:50;1.60;;;1.50;;
3487;SDS011;38546;48.170;11.724;2023-12-29T11:55:39;2.57;;;2.37;;
3487;SDS011;38546;48.170;11.724;2023-12-29T11:58:28;3.03;;;1.77;;
3487;SDS011;38546;48.170;11.724;2023-12-29T12:01:33;2.10;;;2.00;;
3487;SDS011;38546;48.170;11.724;2023-12-29T12:04:40;1.87;;;1.77;;
3487;SDS011;38546;48.170;11.724;2023-12-29T12:14:53;1.73;;;1.63;;
3487;SDS011;38546;48.170;11.724;2023-12-29T12:17:42;2.10;;;1.70;;
3487;SDS011;38546;48.170;11.724;2023-12-29T12:20:35;1.97;;;1.87;;
3487;SDS011;38546;48.170;11.724;2023-12-29T12:23:25;1.80;;;1.67;;
3487;SDS011;38546;48.170;11.724;2023-12-29T12:26:18;2.20;;;1.47;;
3487;SDS011;38546;48.170;11.724;2023-12-29T12:29:09;1.73;;;1.70;;
3487;SDS011;38546;48.170;11.724;2023-12-29T12:32:02;2.33;;;1.93;;
3487;SDS011;38546;48.170;11.724;2023-12-29T12:34:52;1.90;;;1.50;;
3487;SDS011;38546;48.170;11.724;2023-12-29T12:37:42;1.60;;;1.60;;
3487;SDS011;38546;48.170;11.724;2023-12-29T12:40:31;2.33;;;1.40;;
3487;SDS011;38546;48.170;11.724;2023-12-29T12:43:20;1.23;;;1.23;;
3487;SDS011;38546;48.170;11.724;2023-12-29T12:46:14;2.00;;;1.80;;
3487;SDS011;38546;48.170;11.724;2023-12-29T12:49:04;1.90;;;1.67;;
3487;SDS011;38546;48.170;11.724;2023-12-29T12:51:53;1.20;;;1.20;;
3487;SDS011;38546;48.170;11.724;2023-12-29T12:54:44;1.50;;;1.40;;
3487;SDS011;38546;48.170;11.724;2023-12-29T12:57:35;2.43;;;1.83;;
3487;SDS011;38546;48.170;11.724;2023-12-29T13:00:25;1.60;;;1.60;;
3487;SDS011;38546;48.170;11.724;2023-12-29T13:03:15;1.97;;;1.60;;
3487;SDS011;38546;48.170;11.724;2023-12-29T13:06:05;2.23;;;1.70;;
3487;SDS011;38546;48.170;11.724;2023-12-29T13:08:56;1.70;;;1.70;;
3487;SDS011;38546;48.170;11.724;2023-12-29T13:11:45;3.30;;;1.67;;
3487;SDS011;38546;48.170;11.724;2023-12-29T13:14:35;1.60;;;1.60;;
3487;SDS011;38546;48.170;11.724;2023-12-29T13:17:24;1.50;;;1.40;;
3487;SDS011;38546;48.170;11.724;2023-12-29T13:20:13;3.00;;;1.57;;
3487;SDS011;38546;48.170;11.724;2023-12-29T13:23:03;1.40;;;1.40;;
3487;SDS011;38546;48.170;11.724;2023-12-29T13:25:54;1.43;;;1.33;;
3487;SDS011;38546;48.170;11.724;2023-12-29T13:28:45;1.70;;;1.60;;
3487;SDS011;38546;48.170;11.724;2023-12-29T13:31:35;2.00;;;1.50;;
3487;SDS011;38546;48.170;11.724;2023-12-29T13:34:31;1.50;;;1.40;;
3487;SDS011;38546;48.170;11.724;2023-12-29T13:39:05;2.30;;;1.63;;
3487;SDS011;38546;48.170;11.724;2023-12-29T13:42:15;3.50;;;1.70;;
3487;SDS011;38546;48.170;11.724;2023-12-29T13:45:08;1.50;;;1.40;;
3487;SDS011;38546;48.170;11.724;2023-12-29T13:47:58;1.50;;;1.40;;
3487;SDS011;38546;48.170;11.724;2023-12-29T13:50:49;1.77;;;1.73;;
3487;SDS011;38546;48.170;11.724;2023-12-29T13:53:39;1.70;;;1.53;;
3487;SDS011;38546;48.170;11.724;2023-12-29T13:56:29;1.07;;;1.07;;
3487;SDS011;38546;48.170;11.724;2023-12-29T13:59:28;2.90;;;1.80;;
3487;SDS011;38546;48.170;11.724;2023-12-29T14:02:27;1.30;;;1.20;;
3487;SDS011;38546;48.170;11.724;2023-12-29T14:05:24;1.20;;;1.20;;
3487;SDS011;38546;48.170;11.724;2023-12-29T14:08:53;1.67;;;1.47;;
3487;SDS011;38546;48.170;11.724;2023-12-29T14:11:45;1.90;;;1.80;;
3487;SDS011;38546;48.170;11.724;2023-12-29T14:14:36;1.73;;;1.10;;
3487;SDS011;38546;48.170;11.724;2023-12-29T14:17:25;1.30;;;1.20;;
3487;SDS011;38546;48.170;11.724;2023-12-29T14:20:32;1.60;;;1.50;;
3487;SDS011;38546;48.170;11.724;2023-12-29T14:23:25;1.97;;;1.50;;
3487;SDS011;38546;48.170;11.724;2023-12-29T14:26:14;1.70;;;1.60;;
3487;SDS011;38546;48.170;11.724;2023-12-29T14:29:07;1.00;;;1.00;;
3487;SDS011;38546;48.170;11.724;2023-12-29T14:32:01;1.57;;;1.50;;
3487;SDS011;38546;48.170;11.724;2023-12-29T14:34:51;1.30;;;1.30;;
3487;SDS011;38546;48.170;11.724;2023-12-29T14:37:44;1.40;;;1.30;;
3487;SDS011;38546;48.170;11.724;2023-12-29T14:40:34;1.30;;;1.20;;
3487;SDS011;38546;48.170;11.724;2023-12-29T14:43:23;1.40;;;1.40;;
3487;SDS011;38546;48.170;11.724;2023-12-29T14:46:12;1.70;;;1.37;;
3487;SDS011;38546;48.170;11.724;2023-12-29T14:49:02;1.83;;;1.73;;
3487;SDS011;38546;48.170;11.724;2023-12-29T14:51:52;1.50;;;1.40;;
3487;SDS011;38546;48.170;11.724;2023-12-29T14:54:42;1.83;;;1.50;;
3487;SDS011;38546;48.170;11.724;2023-12-29T14:57:31;1.53;;;1.53;;
3487;SDS011;38546;48.170;11.724;2023-12-29T15:00:20;1.43;;;1.43;;
3487;SDS011;38546;48.170;11.724;2023-12-29T15:03:10;1.57;;;1.47;;
3487;SDS011;38546;48.170;11.724;2023-12-29T15:06:00;2.00;;;1.20;;
3487;SDS011;38546;48.170;11.724;2023-12-29T15:08:51;3.03;;;1.40;;
3487;SDS011;38546;48.170;11.724;2023-12-29T15:11:40;1.53;;;1.43;;
3487;SDS011;38546;48.170;11.724;2023-12-29T15:14:29;1.50;;;1.50;;
3487;SDS011;38546;48.170;11.724;2023-12-29T15:17:18;1.60;;;1.50;;
3487;SDS011;38546;48.170;11.724;2023-12-29T15:20:08;1.90;;;1.80;;
3487;SDS011;38546;48.170;11.724;2023-12-29T15:22:59;1.80;;;1.70;;
3487;SDS011;38546;48.170;11.724;2023-12-29T15:25:50;1.40;;;1.33;;
3487;SDS011;38546;48.170;11.724;2023-12-29T15:28:39;3.27;;;2.13;;
3487;SDS011;38546;48.170;11.724;2023-12-29T15:31:28;1.80;;;1.47;;
3487;SDS011;38546;48.170;11.724;2023-12-29T15:34:18;1.30;;;1.30;;
3487;SDS011;38546;48.170;11.724;2023-12-29T15:37:07;2.17;;;1.70;;
3487;SDS011;38546;48.170;11.724;2023-12-29T15:39:56;1.83;;;1.70;;
3487;SDS011;38546;48.170;11.724;2023-12-29T15:42:45;1.70;;;1.60;;
3487;SDS011;38546;48.170;11.724;2023-12-29T15:45:34;1.50;;;1.40;;
3487;SDS011;38546;48.170;11.724;2023-12-29T15:48:23;1.60;;;1.53;;
3487;SDS011;38546;48.170;11.724;2023-12-29T15:51:12;3.17;;;1.50;;
3487;SDS011;38546;48.170;11.724;2023-12-29T15:54:01;1.40;;;1.40;;
3487;SDS011;38546;48.170;11.724;2023-12-29T15:56:51;1.80;;;1.60;;
3487;SDS011;38546;48.170;11.724;2023-12-29T15:59:40;1.33;;;1.20;;
3487;SDS011;38546;48.170;11.724;2023-12-29T16:02:30;1.63;;;1.53;;
3487;SDS011;38546;48.170;11.724;2023-12-29T16:05:19;1.70;;;1.60;;
3487;SDS011;38546;48.170;11.724;2023-12-29T16:08:07;1.83;;;1.73;;
3487;SDS011;38546;48.170;11.724;2023-12-29T16:10:57;2.03;;;1.70;;
3487;SDS011;38546;48.170;11.724;2023-12-29T16:13:46;3.50;;;1.87;;
3487;SDS011;38546;48.170;11.724;2023-12-29T16:16:37;1.80;;;1.70;;
3487;SDS011;38546;48.170;11.724;2023-12-29T16:19:27;2.20;;;2.00;;
3487;SDS011;38546;48.170;11.724;2023-12-29T16:22:16;2.37;;;2.17;;
3487;SDS011;38546;48.170;11.724;2023-12-29T16:25:05;2.73;;;1.97;;
3487;SDS011;38546;48.170;11.724;2023-12-29T16:27:55;1.70;;;1.70;;
3487;SDS011;38546;48.170;11.724;2023-12-29T16:30:44;2.33;;;2.23;;
3487;SDS011;38546;48.170;11.724;2023-12-29T16:33:33;2.93;;;2.20;;
3487;SDS011;38546;48.170;11.724;2023-12-29T16:36:24;1.80;;;1.70;;
3487;SDS011;38546;48.170;11.724;2023-12-29T16:39:13;2.30;;;2.20;;
3487;SDS011;38546;48.170;11.724;2023-12-29T16:42:02;1.80;;;1.70;;
3487;SDS011;38546;48.170;11.724;2023-12-29T16:44:52;2.23;;;1.77;;
3487;SDS011;38546;48.170;11.724;2023-12-29T16:47:41;3.73;;;2.23;;
3487;SDS011;38546;48.170;11.724;2023-12-29T16:50:30;2.53;;;2.40;;
3487;SDS011;38546;48.170;11.724;2023-12-29T16:53:19;2.40;;;2.20;;
3487;SDS011;38546;48.170;11.724;2023-12-29T16:56:11;3.37;;;2.00;;
3487;SDS011;38546;48.170;11.724;2023-12-29T16:59:01;2.33;;;2.13;;
3487;SDS011;38546;48.170;11.724;2023-12-29T17:01:51;1.90;;;1.90;;
3487;SDS011;38546;48.170;11.724;2023-12-29T17:04:39;3.20;;;2.83;;
3487;SDS011;38546;48.170;11.724;2023-12-29T17:07:30;2.60;;;1.90;;
3487;SDS011;38546;48.170;11.724;2023-12-29T17:10:19;2.70;;;2.50;;
3487;SDS011;38546;48.170;11.724;2023-12-29T17:13:08;3.17;;;2.90;;
3487;SDS011;38546;48.170;11.724;2023-12-29T17:15:56;2.80;;;2.27;;
3487;SDS011;38546;48.170;11.724;2023-12-29T17:18:46;2.77;;;2.33;;
3487;SDS011;38546;48.170;11.724;2023-12-29T17:21:35;3.47;;;2.67;;
3487;SDS011;38546;48.170;11.724;2023-12-29T17:24:24;3.97;;;3.57;;
3487;SDS011;38546;48.170;11.724;2023-12-29T17:27:13;5.30;;;4.23;;
3487;SDS011;38546;48.170;11.724;2023-12-29T17:30:03;5.67;;;4.27;;
3487;SDS011;38546;48.170;11.724;2023-12-29T17:32:52;5.03;;;3.67;;
3487;SDS011;38546;48.170;11.724;2023-12-29T17:35:41;3.77;;;2.40;;